sensor_id;sensor_type;location;lat;lon;timestamp;P1;durP1;ratioP1;P2;durP2;ratioP2
29214;SDS011;16252;49.816;7.964;2022-10-30T00:02:23;14.13;;;9.55;;
29214;SDS011;16252;49.816;7.964;2022-10-30T00:04:48;16.95;;;10.38;;
29214;SDS011;16252;49.816;7.964;2022-10-30T00:07:14;21.45;;;11.18;;
29214;SDS011;16252;49.816;7.964;2022-10-30T00:09:39;23.40;;;11.65;;
29214;SDS011;16252;49.816;7.964;2022-10-30T00:12:04;19.05;;;11.23;;
29214;SDS011;16252;49.816;7.964;2022-10-30T00:14:30;21.27;;;12.88;;
29214;SDS011;16252;49.816;7.964;2022-10-30T00:16:55;21.20;;;12.35;;
29214;SDS011;16252;49.816;7.964;2022-10-30T00:19:20;20.92;;;11.65;;
29214;SDS011;16252;49.816;7.964;2022-10-30T00:21:46;17.40;;;10.65;;
29214;SDS011;16252;49.816;7.964;2022-10-30T00:24:11;15.80;;;10.98;;
29214;SDS011;16252;49.816;7.964;2022-10-30T00:26:36;14.80;;;10.15;;
29214;SDS011;16252;49.816;7.964;2022-10-30T00:29:01;12.95;;;9.43;;
29214;SDS011;16252;49.816;7.964;2022-10-30T00:31:27;13.40;;;8.60;;
29214;SDS011;16252;49.816;7.964;2022-10-30T00:33:53;12.40;;;8.00;;
29214;SDS011;16252;49.816;7.964;2022-10-30T00:36:19;12.95;;;8.60;;
29214;SDS011;16252;49.816;7.964;2022-10-30T00:38:44;14.23;;;8.40;;
29214;SDS011;16252;49.816;7.964;2022-10-30T00:41:12;10.60;;;7.63;;
29214;SDS011;16252;49.816;7.964;2022-10-30T00:43:39;12.13;;;7.25;;
29214;SDS011;16252;49.816;7.964;2022-10-30T00:46:06;11.57;;;7.50;;
29214;SDS011;16252;49.816;7.964;2022-10-30T00:48:41;10.77;;;6.88;;
29214;SDS011;16252;49.816;7.964;2022-10-30T00:51:09;11.18;;;7.82;;
29214;SDS011;16252;49.816;7.964;2022-10-30T00:53:36;9.30;;;7.20;;
29214;SDS011;16252;49.816;7.964;2022-10-30T00:56:03;10.25;;;6.70;;
29214;SDS011;16252;49.816;7.964;2022-10-30T00:58:32;9.55;;;6.88;;
29214;SDS011;16252;49.816;7.964;2022-10-30T01:01:02;11.07;;;7.15;;
29214;SDS011;16252;49.816;7.964;2022-10-30T01:03:31;8.75;;;6.93;;
29214;SDS011;16252;49.816;7.964;2022-10-30T01:05:59;16.20;;;7.72;;
29214;SDS011;16252;49.816;7.964;2022-10-30T01:08:28;12.63;;;8.10;;
29214;SDS011;16252;49.816;7.964;2022-10-30T01:10:53;13.43;;;8.77;;
29214;SDS011;16252;49.816;7.964;2022-10-30T01:13:22;15.27;;;8.95;;
29214;SDS011;16252;49.816;7.964;2022-10-30T01:16:14;13.02;;;8.48;;
29214;SDS011;16252;49.816;7.964;2022-10-30T01:24:37;7.72;;;6.05;;
29214;SDS011;16252;49.816;7.964;2022-10-30T01:35:35;9.45;;;6.47;;
29214;SDS011;16252;49.816;7.964;2022-10-30T01:38:12;9.77;;;6.53;;
29214;SDS011;16252;49.816;7.964;2022-10-30T01:40:43;11.40;;;6.68;;
29214;SDS011;16252;49.816;7.964;2022-10-30T01:43:09;10.93;;;7.22;;
29214;SDS011;16252;49.816;7.964;2022-10-30T01:51:10;11.13;;;7.53;;
29214;SDS011;16252;49.816;7.964;2022-10-30T01:56:44;12.35;;;7.10;;
29214;SDS011;16252;49.816;7.964;2022-10-30T01:59:37;11.82;;;6.93;;
29214;SDS011;16252;49.816;7.964;2022-10-30T02:02:06;8.70;;;6.22;;
29214;SDS011;16252;49.816;7.964;2022-10-30T02:04:33;9.63;;;6.47;;
29214;SDS011;16252;49.816;7.964;2022-10-30T02:06:59;9.35;;;6.25;;
29214;SDS011;16252;49.816;7.964;2022-10-30T02:09:24;9.90;;;7.20;;
29214;SDS011;16252;49.816;7.964;2022-10-30T02:11:50;9.55;;;6.40;;
29214;SDS011;16252;49.816;7.964;2022-10-30T02:14:19;11.10;;;6.97;;
29214;SDS011;16252;49.816;7.964;2022-10-30T02:16:49;14.20;;;7.57;;
29214;SDS011;16252;49.816;7.964;2022-10-30T02:19:17;13.75;;;7.30;;
29214;SDS011;16252;49.816;7.964;2022-10-30T02:21:42;14.00;;;7.80;;
29214;SDS011;16252;49.816;7.964;2022-10-30T02:24:08;10.55;;;6.88;;
29214;SDS011;16252;49.816;7.964;2022-10-30T02:26:33;11.15;;;7.00;;
29214;SDS011;16252;49.816;7.964;2022-10-30T02:28:58;11.68;;;7.28;;
29214;SDS011;16252;49.816;7.964;2022-10-30T02:31:23;14.85;;;8.10;;
29214;SDS011;16252;49.816;7.964;2022-10-30T02:33:49;14.90;;;8.18;;
29214;SDS011;16252;49.816;7.964;2022-10-30T02:36:14;11.95;;;7.85;;
29214;SDS011;16252;49.816;7.964;2022-10-30T02:38:40;10.07;;;6.85;;
29214;SDS011;16252;49.816;7.964;2022-10-30T02:41:06;16.63;;;8.25;;
29214;SDS011;16252;49.816;7.964;2022-10-30T02:43:31;13.35;;;7.93;;
29214;SDS011;16252;49.816;7.964;2022-10-30T02:45:57;13.30;;;8.10;;
29214;SDS011;16252;49.816;7.964;2022-10-30T02:48:22;14.07;;;8.18;;
29214;SDS011;16252;49.816;7.964;2022-10-30T02:50:47;15.70;;;8.15;;
29214;SDS011;16252;49.816;7.964;2022-10-30T02:53:12;12.00;;;7.32;;
29214;SDS011;16252;49.816;7.964;2022-10-30T02:55:38;16.58;;;9.18;;
29214;SDS011;16252;49.816;7.964;2022-10-30T02:58:03;12.07;;;8.38;;
29214;SDS011;16252;49.816;7.964;2022-10-30T03:00:28;14.65;;;7.85;;
29214;SDS011;16252;49.816;7.964;2022-10-30T03:02:54;13.25;;;8.13;;
29214;SDS011;16252;49.816;7.964;2022-10-30T03:05:21;12.48;;;9.18;;
29214;SDS011;16252;49.816;7.964;2022-10-30T03:07:46;18.52;;;9.55;;
29214;SDS011;16252;49.816;7.964;2022-10-30T03:10:12;15.70;;;9.70;;
29214;SDS011;16252;49.816;7.964;2022-10-30T03:12:38;17.88;;;9.52;;
29214;SDS011;16252;49.816;7.964;2022-10-30T03:15:03;14.50;;;8.90;;
29214;SDS011;16252;49.816;7.964;2022-10-30T03:17:29;15.40;;;8.48;;
29214;SDS011;16252;49.816;7.964;2022-10-30T03:19:54;13.82;;;8.65;;
29214;SDS011;16252;49.816;7.964;2022-10-30T03:22:20;17.65;;;8.73;;
29214;SDS011;16252;49.816;7.964;2022-10-30T03:24:45;10.77;;;7.57;;
29214;SDS011;16252;49.816;7.964;2022-10-30T03:27:10;12.13;;;7.38;;
29214;SDS011;16252;49.816;7.964;2022-10-30T03:29:35;10.73;;;7.47;;
29214;SDS011;16252;49.816;7.964;2022-10-30T03:32:01;12.73;;;8.07;;
29214;SDS011;16252;49.816;7.964;2022-10-30T03:34:26;12.80;;;7.50;;
29214;SDS011;16252;49.816;7.964;2022-10-30T03:36:51;12.00;;;7.53;;
29214;SDS011;16252;49.816;7.964;2022-10-30T03:39:17;11.73;;;7.68;;
29214;SDS011;16252;49.816;7.964;2022-10-30T03:41:42;13.35;;;7.45;;
29214;SDS011;16252;49.816;7.964;2022-10-30T03:44:07;19.60;;;8.40;;
29214;SDS011;16252;49.816;7.964;2022-10-30T03:46:33;16.33;;;8.93;;
29214;SDS011;16252;49.816;7.964;2022-10-30T03:48:59;17.13;;;9.00;;
29214;SDS011;16252;49.816;7.964;2022-10-30T03:51:25;18.95;;;8.50;;
29214;SDS011;16252;49.816;7.964;2022-10-30T03:53:50;16.48;;;8.77;;
29214;SDS011;16252;49.816;7.964;2022-10-30T03:56:15;18.17;;;8.27;;
29214;SDS011;16252;49.816;7.964;2022-10-30T03:58:41;17.63;;;8.88;;
29214;SDS011;16252;49.816;7.964;2022-10-30T04:01:06;20.23;;;8.80;;
29214;SDS011;16252;49.816;7.964;2022-10-30T04:03:32;19.10;;;9.25;;
29214;SDS011;16252;49.816;7.964;2022-10-30T04:05:58;18.52;;;9.07;;
29214;SDS011;16252;49.816;7.964;2022-10-30T04:08:23;20.20;;;9.68;;
29214;SDS011;16252;49.816;7.964;2022-10-30T04:10:48;24.52;;;9.15;;
29214;SDS011;16252;49.816;7.964;2022-10-30T04:13:14;20.77;;;8.80;;
29214;SDS011;16252;49.816;7.964;2022-10-30T04:15:41;25.33;;;10.35;;
29214;SDS011;16252;49.816;7.964;2022-10-30T04:18:10;20.33;;;9.98;;
29214;SDS011;16252;49.816;7.964;2022-10-30T04:20:37;23.35;;;10.93;;
29214;SDS011;16252;49.816;7.964;2022-10-30T04:23:04;20.30;;;9.00;;
29214;SDS011;16252;49.816;7.964;2022-10-30T04:25:31;20.20;;;8.75;;
29214;SDS011;16252;49.816;7.964;2022-10-30T04:27:57;19.27;;;9.10;;
29214;SDS011;16252;49.816;7.964;2022-10-30T04:30:23;24.55;;;9.85;;
29214;SDS011;16252;49.816;7.964;2022-10-30T04:32:52;22.25;;;8.88;;
29214;SDS011;16252;49.816;7.964;2022-10-30T04:35:19;24.92;;;8.35;;
29214;SDS011;16252;49.816;7.964;2022-10-30T04:37:52;19.55;;;8.05;;
29214;SDS011;16252;49.816;7.964;2022-10-30T04:40:32;12.32;;;7.65;;
29214;SDS011;16252;49.816;7.964;2022-10-30T04:43:00;13.02;;;7.38;;
29214;SDS011;16252;49.816;7.964;2022-10-30T04:45:27;15.93;;;6.90;;
29214;SDS011;16252;49.816;7.964;2022-10-30T04:47:54;14.20;;;7.22;;
29214;SDS011;16252;49.816;7.964;2022-10-30T04:50:24;13.48;;;6.68;;
29214;SDS011;16252;49.816;7.964;2022-10-30T04:52:57;9.73;;;6.45;;
29214;SDS011;16252;49.816;7.964;2022-10-30T04:55:26;12.68;;;6.60;;
29214;SDS011;16252;49.816;7.964;2022-10-30T04:57:54;15.10;;;7.00;;
29214;SDS011;16252;49.816;7.964;2022-10-30T05:00:21;16.63;;;6.78;;
29214;SDS011;16252;49.816;7.964;2022-10-30T05:02:46;10.98;;;6.50;;
29214;SDS011;16252;49.816;7.964;2022-10-30T05:05:12;16.15;;;7.90;;
29214;SDS011;16252;49.816;7.964;2022-10-30T05:07:37;14.93;;;6.68;;
29214;SDS011;16252;49.816;7.964;2022-10-30T05:10:02;13.95;;;7.93;;
29214;SDS011;16252;49.816;7.964;2022-10-30T05:12:28;13.02;;;6.68;;
29214;SDS011;16252;49.816;7.964;2022-10-30T05:14:53;16.90;;;8.40;;
29214;SDS011;16252;49.816;7.964;2022-10-30T05:17:18;17.77;;;8.10;;
29214;SDS011;16252;49.816;7.964;2022-10-30T05:19:44;13.73;;;7.18;;
29214;SDS011;16252;49.816;7.964;2022-10-30T05:22:09;10.80;;;6.78;;
29214;SDS011;16252;49.816;7.964;2022-10-30T05:24:34;11.10;;;7.35;;
29214;SDS011;16252;49.816;7.964;2022-10-30T05:27:01;13.52;;;6.70;;
29214;SDS011;16252;49.816;7.964;2022-10-30T05:29:26;8.90;;;6.07;;
29214;SDS011;16252;49.816;7.964;2022-10-30T05:31:51;17.73;;;7.18;;
29214;SDS011;16252;49.816;7.964;2022-10-30T05:34:16;11.38;;;7.05;;
29214;SDS011;16252;49.816;7.964;2022-10-30T05:36:42;12.52;;;6.80;;
29214;SDS011;16252;49.816;7.964;2022-10-30T05:39:07;12.55;;;6.30;;
29214;SDS011;16252;49.816;7.964;2022-10-30T05:41:32;13.63;;;6.28;;
29214;SDS011;16252;49.816;7.964;2022-10-30T05:43:58;28.83;;;7.00;;
29214;SDS011;16252;49.816;7.964;2022-10-30T05:48:51;17.15;;;7.00;;
29214;SDS011;16252;49.816;7.964;2022-10-30T05:51:16;10.18;;;6.22;;
29214;SDS011;16252;49.816;7.964;2022-10-30T05:53:41;13.80;;;5.43;;
29214;SDS011;16252;49.816;7.964;2022-10-30T05:56:07;8.48;;;4.93;;
29214;SDS011;16252;49.816;7.964;2022-10-30T05:58:32;12.32;;;4.90;;
29214;SDS011;16252;49.816;7.964;2022-10-30T06:00:57;9.10;;;4.53;;
29214;SDS011;16252;49.816;7.964;2022-10-30T06:03:23;8.23;;;5.22;;
29214;SDS011;16252;49.816;7.964;2022-10-30T06:05:48;5.18;;;4.10;;
29214;SDS011;16252;49.816;7.964;2022-10-30T06:08:13;7.53;;;5.03;;
29214;SDS011;16252;49.816;7.964;2022-10-30T06:10:41;6.95;;;4.70;;
29214;SDS011;16252;49.816;7.964;2022-10-30T06:13:08;10.40;;;4.38;;
29214;SDS011;16252;49.816;7.964;2022-10-30T06:15:34;9.52;;;5.10;;
29214;SDS011;16252;49.816;7.964;2022-10-30T06:17:59;14.50;;;4.80;;
29214;SDS011;16252;49.816;7.964;2022-10-30T06:20:25;17.35;;;12.00;;
29214;SDS011;16252;49.816;7.964;2022-10-30T06:25:24;10.80;;;7.07;;
29214;SDS011;16252;49.816;7.964;2022-10-30T06:27:50;8.75;;;6.78;;
29214;SDS011;16252;49.816;7.964;2022-10-30T06:30:16;8.75;;;5.90;;
29214;SDS011;16252;49.816;7.964;2022-10-30T06:32:42;7.75;;;5.93;;
29214;SDS011;16252;49.816;7.964;2022-10-30T06:35:07;7.97;;;5.68;;
29214;SDS011;16252;49.816;7.964;2022-10-30T06:37:33;10.30;;;6.68;;
29214;SDS011;16252;49.816;7.964;2022-10-30T06:39:58;9.88;;;6.30;;
29214;SDS011;16252;49.816;7.964;2022-10-30T06:42:24;7.70;;;5.28;;
29214;SDS011;16252;49.816;7.964;2022-10-30T06:44:49;9.90;;;5.22;;
29214;SDS011;16252;49.816;7.964;2022-10-30T06:47:14;9.05;;;5.68;;
29214;SDS011;16252;49.816;7.964;2022-10-30T06:49:40;7.82;;;5.65;;
29214;SDS011;16252;49.816;7.964;2022-10-30T06:52:05;7.78;;;5.47;;
29214;SDS011;16252;49.816;7.964;2022-10-30T06:54:30;9.02;;;5.45;;
29214;SDS011;16252;49.816;7.964;2022-10-30T06:56:56;10.15;;;5.45;;
29214;SDS011;16252;49.816;7.964;2022-10-30T06:59:21;8.27;;;5.95;;
29214;SDS011;16252;49.816;7.964;2022-10-30T07:01:46;8.10;;;4.85;;
29214;SDS011;16252;49.816;7.964;2022-10-30T07:04:11;11.23;;;5.72;;
29214;SDS011;16252;49.816;7.964;2022-10-30T07:06:37;18.50;;;6.68;;
29214;SDS011;16252;49.816;7.964;2022-10-30T07:09:02;12.50;;;7.13;;
29214;SDS011;16252;49.816;7.964;2022-10-30T07:11:28;13.40;;;7.93;;
29214;SDS011;16252;49.816;7.964;2022-10-30T07:13:53;21.55;;;10.95;;
29214;SDS011;16252;49.816;7.964;2022-10-30T07:16:18;19.33;;;8.93;;
29214;SDS011;16252;49.816;7.964;2022-10-30T07:18:43;17.95;;;7.70;;
29214;SDS011;16252;49.816;7.964;2022-10-30T07:21:09;19.48;;;7.32;;
29214;SDS011;16252;49.816;7.964;2022-10-30T07:23:34;13.55;;;6.40;;
29214;SDS011;16252;49.816;7.964;2022-10-30T07:25:59;24.90;;;8.27;;
29214;SDS011;16252;49.816;7.964;2022-10-30T07:28:24;22.02;;;8.55;;
29214;SDS011;16252;49.816;7.964;2022-10-30T07:30:50;19.58;;;8.65;;
29214;SDS011;16252;49.816;7.964;2022-10-30T07:33:15;23.40;;;9.60;;
29214;SDS011;16252;49.816;7.964;2022-10-30T07:35:40;17.95;;;9.80;;
29214;SDS011;16252;49.816;7.964;2022-10-30T07:38:07;25.17;;;8.05;;
29214;SDS011;16252;49.816;7.964;2022-10-30T07:40:34;27.90;;;8.90;;
29214;SDS011;16252;49.816;7.964;2022-10-30T07:43:00;21.88;;;9.15;;
29214;SDS011;16252;49.816;7.964;2022-10-30T07:45:27;36.08;;;8.43;;
29214;SDS011;16252;49.816;7.964;2022-10-30T07:47:52;24.73;;;8.23;;
29214;SDS011;16252;49.816;7.964;2022-10-30T07:50:18;17.88;;;8.00;;
29214;SDS011;16252;49.816;7.964;2022-10-30T07:52:43;21.52;;;7.88;;
29214;SDS011;16252;49.816;7.964;2022-10-30T07:55:09;17.08;;;8.27;;
29214;SDS011;16252;49.816;7.964;2022-10-30T07:57:35;14.85;;;8.93;;
29214;SDS011;16252;49.816;7.964;2022-10-30T08:00:02;12.80;;;8.00;;
29214;SDS011;16252;49.816;7.964;2022-10-30T08:02:29;17.75;;;8.27;;
29214;SDS011;16252;49.816;7.964;2022-10-30T08:04:54;18.08;;;10.95;;
29214;SDS011;16252;49.816;7.964;2022-10-30T08:07:19;16.90;;;9.50;;
29214;SDS011;16252;49.816;7.964;2022-10-30T08:09:45;15.98;;;8.38;;
29214;SDS011;16252;49.816;7.964;2022-10-30T08:12:11;15.88;;;9.60;;
29214;SDS011;16252;49.816;7.964;2022-10-30T08:14:36;17.17;;;9.20;;
29214;SDS011;16252;49.816;7.964;2022-10-30T08:17:01;20.13;;;9.15;;
29214;SDS011;16252;49.816;7.964;2022-10-30T08:19:29;12.75;;;7.82;;
29214;SDS011;16252;49.816;7.964;2022-10-30T08:21:54;13.90;;;8.88;;
29214;SDS011;16252;49.816;7.964;2022-10-30T08:24:20;13.85;;;8.25;;
29214;SDS011;16252;49.816;7.964;2022-10-30T08:26:46;15.75;;;9.25;;
29214;SDS011;16252;49.816;7.964;2022-10-30T08:29:11;13.82;;;8.75;;
29214;SDS011;16252;49.816;7.964;2022-10-30T08:31:36;13.63;;;8.05;;
29214;SDS011;16252;49.816;7.964;2022-10-30T08:34:02;15.48;;;9.05;;
29214;SDS011;16252;49.816;7.964;2022-10-30T08:36:29;15.23;;;7.60;;
29214;SDS011;16252;49.816;7.964;2022-10-30T08:38:54;37.33;;;7.05;;
29214;SDS011;16252;49.816;7.964;2022-10-30T08:41:20;14.73;;;7.47;;
29214;SDS011;16252;49.816;7.964;2022-10-30T08:43:45;16.67;;;7.80;;
29214;SDS011;16252;49.816;7.964;2022-10-30T08:46:10;14.05;;;7.30;;
29214;SDS011;16252;49.816;7.964;2022-10-30T08:48:35;13.32;;;7.50;;
29214;SDS011;16252;49.816;7.964;2022-10-30T08:51:01;12.68;;;7.10;;
29214;SDS011;16252;49.816;7.964;2022-10-30T08:53:26;9.60;;;6.15;;
29214;SDS011;16252;49.816;7.964;2022-10-30T08:55:51;9.30;;;6.15;;
29214;SDS011;16252;49.816;7.964;2022-10-30T08:58:17;8.25;;;5.72;;
29214;SDS011;16252;49.816;7.964;2022-10-30T09:00:42;6.95;;;4.57;;
29214;SDS011;16252;49.816;7.964;2022-10-30T09:03:08;6.47;;;4.63;;
29214;SDS011;16252;49.816;7.964;2022-10-30T09:05:35;7.13;;;5.20;;
29214;SDS011;16252;49.816;7.964;2022-10-30T09:08:01;9.52;;;5.38;;
29214;SDS011;16252;49.816;7.964;2022-10-30T09:10:26;7.18;;;5.57;;
29214;SDS011;16252;49.816;7.964;2022-10-30T09:12:55;7.47;;;4.82;;
29214;SDS011;16252;49.816;7.964;2022-10-30T09:15:22;7.78;;;5.15;;
29214;SDS011;16252;49.816;7.964;2022-10-30T09:17:53;9.13;;;5.53;;
29214;SDS011;16252;49.816;7.964;2022-10-30T09:20:20;6.55;;;5.18;;
29214;SDS011;16252;49.816;7.964;2022-10-30T09:22:45;8.63;;;5.63;;
29214;SDS011;16252;49.816;7.964;2022-10-30T09:25:10;8.43;;;5.70;;
29214;SDS011;16252;49.816;7.964;2022-10-30T09:27:36;9.02;;;5.88;;
29214;SDS011;16252;49.816;7.964;2022-10-30T09:30:04;9.52;;;5.55;;
29214;SDS011;16252;49.816;7.964;2022-10-30T09:32:30;7.82;;;5.80;;
29214;SDS011;16252;49.816;7.964;2022-10-30T09:34:56;9.13;;;5.90;;
29214;SDS011;16252;49.816;7.964;2022-10-30T09:37:21;7.43;;;5.20;;
29214;SDS011;16252;49.816;7.964;2022-10-30T09:39:48;6.78;;;5.20;;
29214;SDS011;16252;49.816;7.964;2022-10-30T09:53:04;9.85;;;6.68;;
29214;SDS011;16252;49.816;7.964;2022-10-30T09:58:30;8.93;;;5.43;;
29214;SDS011;16252;49.816;7.964;2022-10-30T10:06:46;8.55;;;5.72;;
29214;SDS011;16252;49.816;7.964;2022-10-30T10:09:19;8.88;;;5.70;;
29214;SDS011;16252;49.816;7.964;2022-10-30T10:11:53;9.50;;;5.93;;
29214;SDS011;16252;49.816;7.964;2022-10-30T10:14:22;8.98;;;6.55;;
29214;SDS011;16252;49.816;7.964;2022-10-30T10:16:51;7.45;;;5.88;;
29214;SDS011;16252;49.816;7.964;2022-10-30T10:19:22;8.73;;;6.45;;
29214;SDS011;16252;49.816;7.964;2022-10-30T10:24:25;7.47;;;5.53;;
29214;SDS011;16252;49.816;7.964;2022-10-30T10:43:18;7.80;;;5.38;;
29214;SDS011;16252;49.816;7.964;2022-10-30T10:51:31;6.10;;;4.35;;
29214;SDS011;16252;49.816;7.964;2022-10-30T10:54:02;6.18;;;4.28;;
29214;SDS011;16252;49.816;7.964;2022-10-30T10:56:37;7.07;;;4.47;;
29214;SDS011;16252;49.816;7.964;2022-10-30T11:04:37;4.68;;;4.20;;
29214;SDS011;16252;49.816;7.964;2022-10-30T11:09:42;6.68;;;5.22;;
29214;SDS011;16252;49.816;7.964;2022-10-30T11:12:08;5.65;;;4.38;;
29214;SDS011;16252;49.816;7.964;2022-10-30T11:14:34;6.90;;;4.55;;
29214;SDS011;16252;49.816;7.964;2022-10-30T11:19:43;8.30;;;5.15;;
29214;SDS011;16252;49.816;7.964;2022-10-30T11:22:32;8.48;;;4.40;;
29214;SDS011;16252;49.816;7.964;2022-10-30T11:25:18;5.57;;;4.05;;
29214;SDS011;16252;49.816;7.964;2022-10-30T11:27:46;6.75;;;4.50;;
29214;SDS011;16252;49.816;7.964;2022-10-30T11:30:17;6.07;;;4.60;;
29214;SDS011;16252;49.816;7.964;2022-10-30T11:35:13;6.75;;;4.85;;
29214;SDS011;16252;49.816;7.964;2022-10-30T11:37:42;7.68;;;4.90;;
29214;SDS011;16252;49.816;7.964;2022-10-30T11:42:36;7.95;;;5.72;;
29214;SDS011;16252;49.816;7.964;2022-10-30T11:45:03;7.22;;;5.07;;
29214;SDS011;16252;49.816;7.964;2022-10-30T11:47:36;6.25;;;4.70;;
29214;SDS011;16252;49.816;7.964;2022-10-30T11:50:07;9.60;;;5.38;;
29214;SDS011;16252;49.816;7.964;2022-10-30T11:52:47;6.60;;;4.90;;
29214;SDS011;16252;49.816;7.964;2022-10-30T11:55:17;7.20;;;5.05;;
29214;SDS011;16252;49.816;7.964;2022-10-30T11:57:50;6.50;;;4.72;;
29214;SDS011;16252;49.816;7.964;2022-10-30T12:00:19;7.80;;;4.75;;
29214;SDS011;16252;49.816;7.964;2022-10-30T12:02:48;7.07;;;4.70;;
29214;SDS011;16252;49.816;7.964;2022-10-30T12:05:27;9.98;;;5.45;;
29214;SDS011;16252;49.816;7.964;2022-10-30T12:07:54;10.02;;;4.70;;
29214;SDS011;16252;49.816;7.964;2022-10-30T12:10:41;5.03;;;3.95;;
29214;SDS011;16252;49.816;7.964;2022-10-30T12:13:17;5.68;;;4.50;;
29214;SDS011;16252;49.816;7.964;2022-10-30T12:15:44;6.80;;;4.70;;
29214;SDS011;16252;49.816;7.964;2022-10-30T12:18:19;7.38;;;4.95;;
29214;SDS011;16252;49.816;7.964;2022-10-30T12:20:51;7.05;;;4.28;;
29214;SDS011;16252;49.816;7.964;2022-10-30T12:23:21;8.57;;;4.63;;
29214;SDS011;16252;49.816;7.964;2022-10-30T12:25:51;5.10;;;4.00;;
29214;SDS011;16252;49.816;7.964;2022-10-30T12:28:22;6.15;;;4.43;;
29214;SDS011;16252;49.816;7.964;2022-10-30T12:30:52;5.28;;;4.28;;
29214;SDS011;16252;49.816;7.964;2022-10-30T12:33:23;6.90;;;4.40;;
29214;SDS011;16252;49.816;7.964;2022-10-30T12:43:53;5.60;;;4.20;;
29214;SDS011;16252;49.816;7.964;2022-10-30T12:46:29;4.82;;;4.15;;
29214;SDS011;16252;49.816;7.964;2022-10-30T12:51:53;5.35;;;3.95;;
29214;SDS011;16252;49.816;7.964;2022-10-30T12:57:01;4.63;;;3.90;;
29214;SDS011;16252;49.816;7.964;2022-10-30T13:13:47;4.45;;;3.63;;
29214;SDS011;16252;49.816;7.964;2022-10-30T13:16:15;6.35;;;4.35;;
29214;SDS011;16252;49.816;7.964;2022-10-30T13:18:45;4.50;;;3.35;;
29214;SDS011;16252;49.816;7.964;2022-10-30T13:26:02;3.33;;;3.03;;
29214;SDS011;16252;49.816;7.964;2022-10-30T13:28:46;4.32;;;3.03;;
29214;SDS011;16252;49.816;7.964;2022-10-30T13:31:31;3.95;;;3.00;;
29214;SDS011;16252;49.816;7.964;2022-10-30T13:42:46;6.15;;;3.83;;
29214;SDS011;16252;49.816;7.964;2022-10-30T13:45:25;3.72;;;2.92;;
29214;SDS011;16252;49.816;7.964;2022-10-30T13:53:33;4.80;;;3.40;;
29214;SDS011;16252;49.816;7.964;2022-10-30T13:56:01;5.68;;;3.38;;
29214;SDS011;16252;49.816;7.964;2022-10-30T13:58:31;5.15;;;3.78;;
29214;SDS011;16252;49.816;7.964;2022-10-30T14:01:06;7.05;;;4.63;;
29214;SDS011;16252;49.816;7.964;2022-10-30T14:06:34;6.97;;;4.15;;
29214;SDS011;16252;49.816;7.964;2022-10-30T14:11:59;5.03;;;3.50;;
29214;SDS011;16252;49.816;7.964;2022-10-30T14:14:45;5.95;;;3.80;;
29214;SDS011;16252;49.816;7.964;2022-10-30T14:17:15;10.27;;;4.22;;
29214;SDS011;16252;49.816;7.964;2022-10-30T14:20:20;5.78;;;4.03;;
29214;SDS011;16252;49.816;7.964;2022-10-30T14:22:29;5.60;;;4.35;;
29214;SDS011;16252;49.816;7.964;2022-10-30T14:24:56;6.63;;;3.72;;
29214;SDS011;16252;49.816;7.964;2022-10-30T14:27:40;5.57;;;4.18;;
29214;SDS011;16252;49.816;7.964;2022-10-30T14:30:15;5.80;;;4.25;;
29214;SDS011;16252;49.816;7.964;2022-10-30T14:32:46;4.20;;;3.42;;
29214;SDS011;16252;49.816;7.964;2022-10-30T14:35:26;6.80;;;3.67;;
29214;SDS011;16252;49.816;7.964;2022-10-30T14:40:36;6.17;;;4.73;;
29214;SDS011;16252;49.816;7.964;2022-10-30T14:43:08;5.80;;;4.03;;
29214;SDS011;16252;49.816;7.964;2022-10-30T14:45:44;7.22;;;5.47;;
29214;SDS011;16252;49.816;7.964;2022-10-30T14:48:18;6.57;;;4.45;;
29214;SDS011;16252;49.816;7.964;2022-10-30T14:53:33;6.50;;;4.45;;
29214;SDS011;16252;49.816;7.964;2022-10-30T14:59:22;4.90;;;4.18;;
29214;SDS011;16252;49.816;7.964;2022-10-30T15:15:11;5.88;;;4.43;;
29214;SDS011;16252;49.816;7.964;2022-10-30T15:17:39;7.80;;;5.30;;
29214;SDS011;16252;49.816;7.964;2022-10-30T15:22:47;6.43;;;4.15;;
29214;SDS011;16252;49.816;7.964;2022-10-30T15:25:20;6.50;;;4.82;;
29214;SDS011;16252;49.816;7.964;2022-10-30T15:27:49;8.10;;;5.30;;
29214;SDS011;16252;49.816;7.964;2022-10-30T15:30:18;6.38;;;5.15;;
29214;SDS011;16252;49.816;7.964;2022-10-30T15:32:45;5.97;;;4.95;;
29214;SDS011;16252;49.816;7.964;2022-10-30T15:35:21;7.50;;;4.93;;
29214;SDS011;16252;49.816;7.964;2022-10-30T15:37:55;7.28;;;5.05;;
29214;SDS011;16252;49.816;7.964;2022-10-30T15:40:20;8.88;;;5.50;;
29214;SDS011;16252;49.816;7.964;2022-10-30T15:42:46;7.93;;;5.35;;
29214;SDS011;16252;49.816;7.964;2022-10-30T15:45:17;8.95;;;5.88;;
29214;SDS011;16252;49.816;7.964;2022-10-30T15:47:44;9.63;;;6.15;;
29214;SDS011;16252;49.816;7.964;2022-10-30T15:50:15;13.40;;;9.27;;
29214;SDS011;16252;49.816;7.964;2022-10-30T15:52:43;21.10;;;12.35;;
29214;SDS011;16252;49.816;7.964;2022-10-30T15:55:13;20.67;;;11.70;;
29214;SDS011;16252;49.816;7.964;2022-10-30T15:57:42;16.55;;;10.98;;
29214;SDS011;16252;49.816;7.964;2022-10-30T16:00:21;14.07;;;10.02;;
29214;SDS011;16252;49.816;7.964;2022-10-30T16:03:01;17.02;;;10.80;;
29214;SDS011;16252;49.816;7.964;2022-10-30T16:05:27;14.60;;;10.30;;
29214;SDS011;16252;49.816;7.964;2022-10-30T16:07:56;13.93;;;9.02;;
29214;SDS011;16252;49.816;7.964;2022-10-30T16:10:24;12.48;;;8.50;;
29214;SDS011;16252;49.816;7.964;2022-10-30T16:12:55;12.93;;;8.82;;
29214;SDS011;16252;49.816;7.964;2022-10-30T16:15:24;14.82;;;10.02;;
29214;SDS011;16252;49.816;7.964;2022-10-30T16:23:09;10.48;;;6.57;;
29214;SDS011;16252;49.816;7.964;2022-10-30T16:25:36;14.43;;;7.53;;
29214;SDS011;16252;49.816;7.964;2022-10-30T16:28:03;12.68;;;8.23;;
29214;SDS011;16252;49.816;7.964;2022-10-30T16:30:30;12.82;;;7.97;;
29214;SDS011;16252;49.816;7.964;2022-10-30T16:32:57;10.95;;;8.23;;
29214;SDS011;16252;49.816;7.964;2022-10-30T16:35:23;12.80;;;8.73;;
29214;SDS011;16252;49.816;7.964;2022-10-30T16:37:50;14.35;;;9.45;;
29214;SDS011;16252;49.816;7.964;2022-10-30T16:40:18;15.18;;;9.77;;
29214;SDS011;16252;49.816;7.964;2022-10-30T16:42:49;13.65;;;9.30;;
29214;SDS011;16252;49.816;7.964;2022-10-30T16:45:43;11.60;;;8.40;;
29214;SDS011;16252;49.816;7.964;2022-10-30T16:48:20;14.13;;;9.55;;
29214;SDS011;16252;49.816;7.964;2022-10-30T16:50:51;14.90;;;10.32;;
29214;SDS011;16252;49.816;7.964;2022-10-30T16:53:22;14.90;;;9.57;;
29214;SDS011;16252;49.816;7.964;2022-10-30T16:55:49;15.20;;;10.18;;
29214;SDS011;16252;49.816;7.964;2022-10-30T16:58:16;15.65;;;10.65;;
29214;SDS011;16252;49.816;7.964;2022-10-30T17:03:29;16.73;;;10.10;;
29214;SDS011;16252;49.816;7.964;2022-10-30T17:06:01;14.43;;;9.65;;
29214;SDS011;16252;49.816;7.964;2022-10-30T17:08:33;15.90;;;10.35;;
29214;SDS011;16252;49.816;7.964;2022-10-30T17:11:14;12.63;;;8.25;;
29214;SDS011;16252;49.816;7.964;2022-10-30T17:16:21;15.85;;;9.93;;
29214;SDS011;16252;49.816;7.964;2022-10-30T17:18:48;14.65;;;9.45;;
29214;SDS011;16252;49.816;7.964;2022-10-30T17:21:16;12.15;;;9.07;;
29214;SDS011;16252;49.816;7.964;2022-10-30T17:23:49;12.50;;;8.20;;
29214;SDS011;16252;49.816;7.964;2022-10-30T17:26:16;17.90;;;10.55;;
29214;SDS011;16252;49.816;7.964;2022-10-30T17:28:42;11.98;;;8.27;;
29214;SDS011;16252;49.816;7.964;2022-10-30T17:31:18;11.70;;;7.97;;
29214;SDS011;16252;49.816;7.964;2022-10-30T17:33:46;10.73;;;7.32;;
29214;SDS011;16252;49.816;7.964;2022-10-30T17:36:12;13.27;;;7.50;;
29214;SDS011;16252;49.816;7.964;2022-10-30T17:38:38;9.85;;;6.65;;
29214;SDS011;16252;49.816;7.964;2022-10-30T17:41:06;8.30;;;5.97;;